Time;durP1;ratioP1;P1;durP2;ratioP2;P2;SDS_P1;SDS_P2;PMS_P1;PMS_P2;Temp;Humidity;BMP_temperature;BMP_pressure;BME280_temperature;BME280_humidity;BME280_pressure;Samples;Min_cycle;Max_cycle;Signal;HPM_P1;HPM_P2
2022/01/21 00:01:02;;;;;;;141.87;66.40;;;2.40;99.90;;;;;;4985448;28;20026;-75
2022/01/21 00:03:28;;;;;;;137.87;65.00;;;2.50;99.90;;;;;;4981925;28;20113;-75
2022/01/21 00:05:54;;;;;;;126.80;62.30;;;2.50;99.90;;;;;;4992141;28;20113;-75
2022/01/21 00:08:20;;;;;;;130.10;62.13;;;2.30;99.90;;;;;;4980914;28;20022;-75
2022/01/21 00:10:45;;;;;;;133.27;64.53;;;2.30;99.90;;;;;;4986052;28;20058;-75
2022/01/21 00:13:19;;;;;;;131.87;64.07;;;2.30;99.90;;;;;;4982080;28;20033;-75
2022/01/21 00:15:45;;;;;;;133.57;64.30;;;2.30;99.90;;;;;;4977601;28;20493;-75
2022/01/21 00:18:12;;;;;;;132.23;65.63;;;2.30;99.90;;;;;;4977024;28;20023;-75
2022/01/21 00:31:48;;;;;;;130.87;63.57;;;2.40;99.90;;;;;;4973604;28;20042;-75
2022/01/21 00:34:13;;;;;;;449.33;279.77;;;2.40;99.90;;;;;;4973391;28;20027;-75
2022/01/21 00:36:39;;;;;;;240.80;133.57;;;2.40;99.90;;;;;;4975777;28;20098;-76
2022/01/21 00:39:05;;;;;;;276.73;150.17;;;2.30;99.90;;;;;;4975964;28;20456;-75
2022/01/21 00:41:36;;;;;;;208.53;111.60;;;2.30;99.90;;;;;;4975336;28;20042;-75
2022/01/21 00:44:02;;;;;;;154.33;80.60;;;2.30;99.90;;;;;;4966306;28;20027;-75
2022/01/21 00:46:29;;;;;;;133.57;66.77;;;2.40;99.90;;;;;;4970864;28;20114;-75
2022/01/21 00:48:55;;;;;;;134.60;65.53;;;2.30;99.90;;;;;;4973632;28;20034;-75
2022/01/21 00:51:20;;;;;;;120.03;59.80;;;2.30;99.90;;;;;;4972553;28;20023;-75
2022/01/21 00:53:46;;;;;;;125.43;61.80;;;2.10;99.90;;;;;;4973669;28;20018;-75
2022/01/21 00:56:12;;;;;;;129.57;63.50;;;2.10;99.90;;;;;;4975772;28;20022;-75
2022/01/21 00:58:38;;;;;;;136.60;66.23;;;2.10;99.90;;;;;;4975575;28;20023;-75
2022/01/21 01:01:03;;;;;;;133.83;64.57;;;2.20;99.90;;;;;;4974138;28;20031;-75
2022/01/21 01:03:29;;;;;;;130.40;64.07;;;2.20;99.90;;;;;;4975842;28;20153;-75
2022/01/21 01:05:56;;;;;;;122.27;60.00;;;2.20;99.90;;;;;;4975989;28;20027;-75
2022/01/21 01:08:22;;;;;;;136.73;65.37;;;2.10;99.90;;;;;;4976262;28;20050;-75
2022/01/21 01:21:32;;;;;;;129.70;65.97;;;2.00;99.90;;;;;;4976466;28;20081;-75
2022/01/21 01:29:24;;;;;;;131.23;64.23;;;2.00;99.90;;;;;;4975731;28;20061;-75
2022/01/21 01:31:51;;;;;;;137.23;65.20;;;2.00;99.90;;;;;;4975524;28;20027;-75
2022/01/21 01:34:18;;;;;;;146.20;67.13;;;2.00;99.90;;;;;;4975799;28;20019;-74
2022/01/21 01:36:46;;;;;;;140.23;70.67;;;2.00;99.90;;;;;;4974563;28;20678;-75
2022/01/21 01:50:06;;;;;;;143.67;70.83;;;1.90;99.90;;;;;;4974391;28;20041;-78
2022/01/21 01:52:33;;;;;;;139.83;69.03;;;2.00;99.90;;;;;;4973552;28;20421;-78
2022/01/21 01:54:59;;;;;;;145.33;71.23;;;2.00;99.90;;;;;;4974636;28;20027;-78
2022/01/21 01:57:25;;;;;;;147.30;68.97;;;2.10;99.90;;;;;;4973172;28;20034;-79
2022/01/21 01:59:51;;;;;;;140.33;68.47;;;2.10;99.90;;;;;;4973001;28;20041;-78
2022/01/21 02:02:19;;;;;;;130.80;62.10;;;2.10;99.90;;;;;;4974254;28;20034;-78
2022/01/21 02:04:47;;;;;;;125.67;61.70;;;1.90;99.90;;;;;;4974418;28;20465;-78
2022/01/21 02:07:13;;;;;;;137.47;67.27;;;1.80;99.90;;;;;;4973742;28;20034;-78
2022/01/21 02:09:39;;;;;;;145.73;69.40;;;1.80;99.90;;;;;;4972717;28;20113;-78
2022/01/21 02:12:06;;;;;;;142.70;71.23;;;1.80;99.90;;;;;;4972820;28;20023;-78
2022/01/21 02:14:35;;;;;;;139.90;67.73;;;1.80;99.90;;;;;;4974040;28;20041;-78
2022/01/21 02:22:19;;;;;;;145.73;70.40;;;1.90;99.90;;;;;;4974343;28;20041;-78
2022/01/21 02:24:53;;;;;;;146.63;69.73;;;1.80;99.90;;;;;;4973896;28;20039;-78
2022/01/21 02:27:19;;;;;;;159.63;76.10;;;1.80;99.90;;;;;;4972659;28;20030;-78
2022/01/21 02:29:49;;;;;;;140.30;70.70;;;1.90;99.90;;;;;;4973910;28;20035;-78
2022/01/21 02:32:17;;;;;;;156.13;74.50;;;1.80;99.90;;;;;;4973461;28;20385;-79
2022/01/21 02:34:44;;;;;;;152.03;74.87;;;1.80;99.90;;;;;;4973851;28;20025;-79
2022/01/21 02:37:13;;;;;;;148.27;74.33;;;1.90;99.90;;;;;;4973843;28;20106;-79
2022/01/21 02:39:39;;;;;;;144.57;68.60;;;1.90;99.90;;;;;;4973830;28;20109;-79
2022/01/21 02:42:05;;;;;;;138.60;68.80;;;1.80;99.90;;;;;;4972000;28;20031;-78
2022/01/21 02:44:31;;;;;;;155.27;71.80;;;1.80;99.90;;;;;;4973623;28;20517;-78
2022/01/21 02:46:59;;;;;;;144.60;72.73;;;1.90;99.90;;;;;;4973625;28;20026;-79
2022/01/21 02:49:26;;;;;;;153.87;73.70;;;2.00;99.90;;;;;;4973340;28;20023;-79
2022/01/21 02:51:53;;;;;;;155.17;73.20;;;2.10;99.90;;;;;;4973410;28;20019;-78
2022/01/21 02:54:19;;;;;;;142.47;70.37;;;2.10;99.90;;;;;;4973504;28;20091;-79
2022/01/21 02:56:45;;;;;;;144.07;70.43;;;2.20;99.90;;;;;;4973247;28;20035;-78
2022/01/21 02:59:12;;;;;;;127.47;63.40;;;2.10;99.90;;;;;;4971979;28;20507;-79
2022/01/21 03:01:41;;;;;;;138.47;66.10;;;2.00;99.90;;;;;;4973333;28;20031;-78
2022/01/21 03:04:08;;;;;;;136.13;65.60;;;2.00;99.90;;;;;;4973411;28;20038;-79
2022/01/21 03:06:37;;;;;;;138.77;65.80;;;2.00;99.90;;;;;;4973206;28;20077;-79
2022/01/21 03:09:06;;;;;;;135.20;66.60;;;2.00;99.90;;;;;;4973061;28;20235;-79
2022/01/21 03:11:32;;;;;;;138.60;68.07;;;2.00;99.90;;;;;;4972859;28;20473;-79
2022/01/21 03:13:58;;;;;;;141.63;68.57;;;2.00;99.90;;;;;;4971774;28;20093;-79
2022/01/21 03:16:24;;;;;;;146.57;68.07;;;2.00;99.90;;;;;;4971823;28;20514;-79
2022/01/21 03:18:50;;;;;;;121.97;62.97;;;2.10;99.90;;;;;;4972347;28;20031;-78
2022/01/21 03:21:17;;;;;;;140.07;66.63;;;1.90;99.90;;;;;;4975193;28;20062;-79
2022/01/21 03:23:47;;;;;;;145.07;69.27;;;1.80;99.90;;;;;;4972827;28;20019;-79
2022/01/21 03:26:19;;;;;;;135.97;63.33;;;1.90;99.90;;;;;;4972969;28;20038;-79
2022/01/21 03:28:46;;;;;;;126.90;64.35;;;1.80;99.90;;;;;;4973185;28;20054;-79
2022/01/21 03:31:12;;;;;;;139.33;66.50;;;1.80;99.90;;;;;;4972899;28;20366;-79
2022/01/21 03:33:39;;;;;;;145.40;67.47;;;1.90;99.90;;;;;;4973066;28;20027;-78
2022/01/21 03:36:05;;;;;;;138.20;66.77;;;1.90;99.90;;;;;;4971678;28;20031;-79
2022/01/21 03:38:31;;;;;;;138.83;66.13;;;1.90;99.90;;;;;;4972796;28;20027;-79
2022/01/21 03:40:56;;;;;;;128.37;62.27;;;1.90;99.90;;;;;;4972871;28;20496;-78
2022/01/21 03:43:23;;;;;;;135.00;65.17;;;1.80;99.90;;;;;;4972867;28;20106;-78
2022/01/21 03:45:49;;;;;;;132.97;63.80;;;1.80;99.90;;;;;;4972898;28;20026;-79
2022/01/21 03:48:15;;;;;;;131.20;61.73;;;1.80;99.90;;;;;;4972769;28;20031;-79
2022/01/21 03:50:42;;;;;;;130.87;66.40;;;1.80;99.90;;;;;;4972602;28;20031;-79
2022/01/21 03:53:08;;;;;;;129.13;61.40;;;1.80;99.90;;;;;;4971450;28;20110;-79
2022/01/21 03:55:34;;;;;;;133.03;65.27;;;1.60;99.90;;;;;;4972576;28;20166;-78
2022/01/21 03:58:02;;;;;;;138.27;66.30;;;1.60;99.90;;;;;;4972906;28;20504;-78
2022/01/21 04:00:37;;;;;;;142.57;67.97;;;1.60;99.90;;;;;;4972876;28;20035;-78
2022/01/21 04:03:03;;;;;;;143.83;71.33;;;1.60;99.90;;;;;;4972827;28;20023;-78
2022/01/21 04:05:30;;;;;;;144.07;67.80;;;1.70;99.90;;;;;;4972612;28;20118;-79
2022/01/21 04:07:57;;;;;;;135.93;66.60;;;1.80;99.90;;;;;;4971013;28;20032;-79
2022/01/21 04:10:24;;;;;;;133.27;67.47;;;1.80;99.90;;;;;;4972775;28;20031;-79
2022/01/21 04:12:50;;;;;;;152.60;72.03;;;1.90;99.90;;;;;;4971152;28;20027;-79
2022/01/21 04:15:17;;;;;;;149.03;70.40;;;1.90;99.90;;;;;;4972261;28;20042;-79
2022/01/21 04:17:43;;;;;;;142.17;67.03;;;2.00;99.90;;;;;;4972498;28;20027;-79
2022/01/21 04:20:10;;;;;;;140.43;68.03;;;1.90;99.90;;;;;;4971360;28;20030;-79
2022/01/21 04:22:36;;;;;;;133.90;65.40;;;2.00;99.90;;;;;;4972211;28;20077;-78
2022/01/21 04:25:04;;;;;;;138.33;67.17;;;2.00;99.90;;;;;;4972444;28;20041;-79
2022/01/21 04:27:30;;;;;;;134.87;64.77;;;2.00;99.90;;;;;;4971349;28;20019;-79
2022/01/21 04:29:55;;;;;;;128.30;63.70;;;2.00;99.90;;;;;;4972491;28;20393;-79
2022/01/21 04:32:21;;;;;;;135.73;64.43;;;1.90;99.90;;;;;;4975671;28;20484;-78
2022/01/21 04:34:59;;;;;;;123.07;62.43;;;1.90;99.90;;;;;;4975487;28;20499;-76
2022/01/21 04:37:25;;;;;;;134.17;63.60;;;1.90;99.90;;;;;;4976787;28;20521;-76
2022/01/21 04:39:59;;;;;;;126.27;63.33;;;2.00;99.90;;;;;;4975893;28;20041;-76
2022/01/21 04:47:53;;;;;;;122.33;59.27;;;2.00;99.90;;;;;;4976521;28;20042;-76
2022/01/21 04:50:19;;;;;;;119.87;58.10;;;2.10;99.90;;;;;;4974517;28;20038;-76
2022/01/21 04:52:45;;;;;;;115.80;55.17;;;2.10;99.90;;;;;;4974230;28;20031;-76
2022/01/21 04:55:11;;;;;;;109.13;52.87;;;2.10;99.90;;;;;;4975840;28;20532;-75
2022/01/21 04:57:37;;;;;;;112.03;54.17;;;2.10;99.90;;;;;;4974420;28;20077;-76
2022/01/21 05:00:06;;;;;;;111.53;54.97;;;2.10;99.90;;;;;;4975523;28;20027;-76
2022/01/21 05:02:33;;;;;;;103.70;49.43;;;2.00;99.90;;;;;;4975450;28;20034;-76
2022/01/21 05:04:59;;;;;;;94.63;47.17;;;2.00;99.90;;;;;;4974290;28;20023;-76
2022/01/21 05:07:27;;;;;;;97.37;46.90;;;2.10;99.90;;;;;;4975847;28;20092;-76
2022/01/21 05:09:53;;;;;;;92.30;44.03;;;2.10;99.90;;;;;;4976190;28;20027;-76
2022/01/21 05:12:21;;;;;;;82.87;42.87;;;2.10;99.90;;;;;;4976377;28;20357;-76
2022/01/21 05:17:14;;;;;;;83.33;41.07;;;2.10;99.90;;;;;;4976531;28;20101;-76
2022/01/21 05:19:40;;;;;;;85.83;42.43;;;2.00;99.90;;;;;;4975911;28;20027;-76
2022/01/21 05:22:06;;;;;;;85.83;41.67;;;1.80;99.90;;;;;;4974042;28;20035;-76
2022/01/21 05:24:32;;;;;;;82.43;41.43;;;1.80;99.90;;;;;;4975220;28;20031;-76
2022/01/21 05:27:01;;;;;;;84.93;40.53;;;1.80;99.90;;;;;;5021390;28;20034;-76
2022/01/21 05:29:29;;;;;;;80.40;40.60;;;1.70;99.90;;;;;;4994508;28;20034;-76
2022/01/21 05:31:55;;;;;;;83.53;40.27;;;1.60;99.90;;;;;;4994562;28;20416;-75
2022/01/21 05:34:21;;;;;;;79.73;40.20;;;1.60;99.90;;;;;;4994376;28;20057;-76
2022/01/21 05:36:47;;;;;;;76.17;39.00;;;1.50;99.90;;;;;;4993025;28;20050;-76
2022/01/21 05:39:17;;;;;;;77.37;36.93;;;1.50;99.90;;;;;;4994306;28;20054;-75
2022/01/21 05:41:50;;;;;;;69.07;34.40;;;1.60;99.90;;;;;;4993832;28;20025;-76
2022/01/21 05:46:54;;;;;;;64.77;33.23;;;1.60;99.90;;;;;;4994049;28;20030;-76
2022/01/21 05:49:24;;;;;;;64.63;32.27;;;1.50;99.90;;;;;;4994027;28;20026;-76
2022/01/21 05:51:52;;;;;;;71.10;33.97;;;1.50;99.90;;;;;;4989845;28;20085;-76
2022/01/21 05:54:23;;;;;;;63.90;30.90;;;1.40;99.90;;;;;;4973361;28;20026;-76
2022/01/21 05:56:49;;;;;;;61.17;29.30;;;1.40;99.90;;;;;;4973540;28;20019;-76
2022/01/21 05:59:15;;;;;;;54.60;26.23;;;1.40;99.90;;;;;;4974373;28;20054;-76
2022/01/21 06:01:40;;;;;;;51.23;25.33;;;1.40;99.90;;;;;;4974481;28;20473;-76
2022/01/21 06:04:06;;;;;;;53.50;25.57;;;1.40;99.90;;;;;;4974298;28;20109;-76
2022/01/21 06:06:33;;;;;;;45.07;23.67;;;1.30;99.90;;;;;;4974171;28;20058;-75
2022/01/21 06:08:59;;;;;;;48.80;23.00;;;1.40;99.90;;;;;;4973972;28;20034;-75
2022/01/21 06:11:25;;;;;;;42.40;21.63;;;1.40;99.90;;;;;;4973995;28;20030;-75
2022/01/21 06:13:51;;;;;;;41.93;21.23;;;1.40;99.90;;;;;;4972727;28;20049;-75
2022/01/21 06:16:18;;;;;;;37.77;20.00;;;1.40;99.90;;;;;;4974246;28;20018;-75
2022/01/21 06:18:44;;;;;;;39.60;19.83;;;1.40;99.90;;;;;;4974166;28;20030;-75
2022/01/21 06:21:09;;;;;;;33.53;17.67;;;1.50;99.90;;;;;;4973915;28;20030;-75
2022/01/21 06:23:35;;;;;;;36.00;18.10;;;1.40;99.90;;;;;;4972715;28;20026;-75
2022/01/21 06:26:01;;;;;;;31.90;16.83;;;1.40;99.90;;;;;;4974081;28;20029;-75
2022/01/21 06:28:27;;;;;;;36.43;17.53;;;1.40;99.90;;;;;;4972667;28;20506;-76
2022/01/21 06:30:53;;;;;;;30.87;16.20;;;1.40;99.90;;;;;;4973720;28;20034;-76
2022/01/21 06:33:22;;;;;;;30.93;16.20;;;1.40;99.90;;;;;;4972400;28;20397;-75
2022/01/21 06:35:51;;;;;;;32.13;16.67;;;1.30;99.90;;;;;;4972485;28;20026;-75
2022/01/21 06:38:21;;;;;;;29.90;15.40;;;1.20;99.90;;;;;;4973736;28;20118;-75
2022/01/21 06:40:49;;;;;;;30.70;15.60;;;1.10;99.90;;;;;;4973408;28;20023;-75
2022/01/21 06:43:15;;;;;;;26.93;14.93;;;1.10;99.90;;;;;;4972359;28;20089;-75
2022/01/21 06:45:42;;;;;;;25.23;13.27;;;1.10;99.90;;;;;;4973521;28;20035;-75
2022/01/21 06:48:08;;;;;;;27.57;13.80;;;1.10;99.90;;;;;;4973483;28;20065;-75
2022/01/21 06:50:37;;;;;;;22.40;12.07;;;1.10;99.90;;;;;;4971979;28;20069;-75
2022/01/21 06:53:03;;;;;;;22.47;12.77;;;1.20;99.90;;;;;;4972127;28;20027;-75
2022/01/21 06:55:29;;;;;;;19.50;11.67;;;1.10;99.90;;;;;;4973403;28;20468;-75
2022/01/21 06:57:55;;;;;;;25.80;13.70;;;1.20;99.90;;;;;;4973277;28;20041;-75
2022/01/21 07:00:21;;;;;;;22.17;12.63;;;1.30;99.90;;;;;;4973288;28;20137;-75
2022/01/21 07:02:48;;;;;;;22.30;13.20;;;1.30;99.90;;;;;;4973220;28;20034;-75
2022/01/21 07:05:14;;;;;;;21.53;11.13;;;1.20;99.90;;;;;;4973186;28;20527;-75
2022/01/21 07:07:40;;;;;;;20.50;11.43;;;1.20;99.90;;;;;;4973126;28;20015;-75
2022/01/21 07:10:08;;;;;;;24.07;13.00;;;1.10;99.90;;;;;;4973151;28;20027;-75
2022/01/21 07:12:34;;;;;;;21.67;13.10;;;1.10;99.90;;;;;;4971719;28;20034;-75
2022/01/21 07:15:00;;;;;;;24.77;12.60;;;1.10;99.90;;;;;;4972750;28;20054;-75
2022/01/21 07:17:26;;;;;;;28.40;14.73;;;1.10;99.90;;;;;;4973132;28;20489;-75
2022/01/21 07:19:52;;;;;;;24.33;12.83;;;1.20;99.90;;;;;;4972988;28;20027;-75
2022/01/21 07:22:18;;;;;;;27.53;14.77;;;1.20;99.90;;;;;;4971731;28;20031;-75
2022/01/21 07:24:44;;;;;;;30.57;14.90;;;1.10;99.90;;;;;;4975394;28;20034;-75
2022/01/21 07:27:09;;;;;;;45.53;21.93;;;1.10;99.90;;;;;;4972790;28;20039;-75
2022/01/21 07:29:35;;;;;;;46.23;24.10;;;1.10;99.90;;;;;;4972855;28;20034;-75
2022/01/21 07:32:01;;;;;;;49.03;25.37;;;1.10;99.90;;;;;;4971486;28;20147;-76
2022/01/21 07:34:27;;;;;;;50.17;25.73;;;1.20;99.90;;;;;;4971711;28;20027;-75
2022/01/21 07:36:55;;;;;;;52.70;25.77;;;1.30;99.90;;;;;;4971514;28;20046;-75
2022/01/21 07:39:21;;;;;;;48.57;25.07;;;1.30;99.90;;;;;;4972958;28;20086;-75
2022/01/21 07:41:47;;;;;;;48.07;25.73;;;1.40;99.90;;;;;;4972004;28;20121;-75
2022/01/21 07:44:13;;;;;;;48.63;24.80;;;1.50;99.90;;;;;;4973556;28;20057;-79
2022/01/21 07:46:40;;;;;;;44.33;22.43;;;1.50;99.90;;;;;;4973334;28;20031;-78
2022/01/21 07:49:06;;;;;;;34.63;18.50;;;1.50;99.90;;;;;;4973729;28;20043;-78
2022/01/21 07:51:32;;;;;;;38.80;19.33;;;1.60;99.90;;;;;;4971839;28;20577;-78
2022/01/21 07:53:58;;;;;;;34.20;17.80;;;1.60;99.90;;;;;;4972970;28;20103;-79
2022/01/21 07:56:24;;;;;;;39.17;19.87;;;1.70;99.90;;;;;;4973031;28;20031;-78
2022/01/21 07:58:51;;;;;;;34.80;18.23;;;1.70;99.90;;;;;;4972777;28;20274;-78
2022/01/21 08:01:16;;;;;;;35.00;18.27;;;1.80;99.90;;;;;;4972743;28;20027;-78
2022/01/21 08:03:42;;;;;;;28.53;14.77;;;1.80;99.90;;;;;;4972298;28;20019;-79
2022/01/21 08:06:08;;;;;;;27.40;15.33;;;1.80;99.90;;;;;;4973868;28;20377;-78
2022/01/21 08:08:33;;;;;;;26.93;15.37;;;1.90;99.90;;;;;;4976241;28;20027;-79
2022/01/21 08:10:59;;;;;;;32.67;17.93;;;2.00;99.90;;;;;;4976354;28;20027;-79
2022/01/21 08:13:27;;;;;;;33.40;17.07;;;1.90;99.90;;;;;;4976371;28;20113;-78
2022/01/21 08:15:53;;;;;;;37.93;18.97;;;2.00;99.90;;;;;;4976240;28;20022;-79
2022/01/21 08:18:19;;;;;;;37.77;18.97;;;2.00;99.90;;;;;;4974566;28;20029;-79
2022/01/21 08:20:45;;;;;;;34.63;19.23;;;2.10;99.90;;;;;;4976261;28;20113;-79
2022/01/21 08:23:11;;;;;;;40.20;21.23;;;2.20;99.90;;;;;;4976278;28;20051;-78
2022/01/21 08:25:38;;;;;;;46.73;22.67;;;2.20;99.90;;;;;;4975054;28;20054;-78
2022/01/21 08:28:04;;;;;;;52.47;26.50;;;2.20;99.90;;;;;;4973560;28;20113;-79
2022/01/21 08:30:30;;;;;;;53.17;26.87;;;2.20;99.90;;;;;;4975664;28;20126;-78
2022/01/21 08:32:55;;;;;;;65.53;31.90;;;2.30;99.90;;;;;;4976114;28;20027;-79
2022/01/21 08:35:21;;;;;;;65.53;31.20;;;2.30;99.90;;;;;;4976006;28;20031;-79
2022/01/21 08:37:47;;;;;;;67.17;32.80;;;2.40;99.90;;;;;;4975896;28;20019;-79
2022/01/21 08:40:13;;;;;;;79.13;40.33;;;2.40;99.90;;;;;;4975931;28;20259;-78
2022/01/21 08:42:39;;;;;;;87.17;43.03;;;2.40;99.90;;;;;;4975794;28;20038;-79
2022/01/21 08:45:05;;;;;;;87.30;43.50;;;2.40;99.90;;;;;;4975841;28;20038;-79
2022/01/21 08:50:18;;;;;;;101.37;48.27;;;2.50;99.90;;;;;;5019047;23;20053;-76
2022/01/21 08:52:45;;;;;;;98.73;47.70;;;2.50;99.90;;;;;;5053826;28;20028;-77
2022/01/21 08:55:17;;;;;;;95.33;48.27;;;2.50;99.90;;;;;;5053842;28;20029;-76
2022/01/21 08:57:46;;;;;;;100.20;50.05;;;2.50;99.90;;;;;;5054460;28;20033;-76
2022/01/21 09:00:18;;;;;;;101.80;49.10;;;2.50;99.90;;;;;;5054249;28;20474;-76
2022/01/21 09:02:45;;;;;;;99.23;48.17;;;2.60;99.90;;;;;;5054228;28;20025;-76
2022/01/21 09:05:12;;;;;;;99.00;48.03;;;2.60;99.90;;;;;;5054292;28;20024;-76
2022/01/21 09:07:38;;;;;;;106.77;51.53;;;2.70;99.90;;;;;;5054062;28;20024;-76
2022/01/21 09:10:05;;;;;;;101.33;52.17;;;2.70;99.90;;;;;;5035765;28;20032;-76
2022/01/21 09:12:31;;;;;;;108.23;54.07;;;2.80;99.90;;;;;;5052222;28;20032;-76
2022/01/21 09:14:57;;;;;;;110.37;54.13;;;2.80;99.90;;;;;;5034184;28;20021;-76
2022/01/21 09:17:23;;;;;;;109.83;54.97;;;2.80;99.90;;;;;;5034111;28;20498;-76
2022/01/21 09:19:49;;;;;;;112.33;57.20;;;2.80;99.90;;;;;;5057435;28;20025;-77
2022/01/21 09:22:14;;;;;;;114.20;56.37;;;2.80;99.90;;;;;;5053859;28;20082;-76
2022/01/21 09:24:40;;;;;;;110.70;57.90;;;2.90;99.90;;;;;;5054044;28;20052;-77
2022/01/21 09:27:06;;;;;;;109.70;56.77;;;2.90;99.90;;;;;;5071791;28;20716;-76
2022/01/21 09:29:34;;;;;;;118.47;57.90;;;2.90;99.90;;;;;;5071586;28;20121;-77
2022/01/21 09:32:00;;;;;;;112.13;56.03;;;2.90;99.90;;;;;;5071740;28;20039;-77
2022/01/21 09:34:27;;;;;;;117.00;57.77;;;3.00;99.90;;;;;;5066407;28;20021;-76
2022/01/21 09:36:55;;;;;;;125.77;61.23;;;3.00;99.90;;;;;;5053358;28;20013;-77
2022/01/21 09:39:21;;;;;;;124.67;61.03;;;3.10;99.90;;;;;;5053357;28;20056;-76
2022/01/21 09:41:48;;;;;;;125.10;63.47;;;3.10;99.90;;;;;;5053375;28;20027;-77
2022/01/21 09:44:16;;;;;;;121.23;63.57;;;3.20;99.90;;;;;;5053266;28;20031;-76
2022/01/21 09:46:45;;;;;;;125.03;64.47;;;3.20;99.90;;;;;;5053300;28;20394;-76
2022/01/21 09:49:26;;;;;;;124.63;61.67;;;3.30;99.90;;;;;;5037192;28;20025;-77
2022/01/21 09:51:53;;;;;;;120.73;61.40;;;3.40;99.90;;;;;;5055360;28;20507;-76
2022/01/21 09:54:25;;;;;;;125.43;61.43;;;3.50;99.90;;;;;;5073084;28;20024;-76
2022/01/21 09:56:54;;;;;;;125.38;62.75;;;3.50;99.90;;;;;;5055111;28;20027;-76
2022/01/21 09:59:22;;;;;;;122.83;62.90;;;3.50;99.90;;;;;;5054999;28;20029;-76
2022/01/21 10:01:55;;;;;;;113.23;60.77;;;3.60;99.90;;;;;;5072987;28;20043;-76
2022/01/21 10:04:25;;;;;;;119.87;58.80;;;3.70;99.90;;;;;;5072679;28;20112;-76
2022/01/21 10:06:52;;;;;;;118.00;59.67;;;3.70;99.90;;;;;;5053898;28;20033;-76
2022/01/21 10:09:20;;;;;;;117.43;61.17;;;3.70;99.90;;;;;;5052625;28;20025;-76
2022/01/21 10:11:49;;;;;;;108.60;55.57;;;3.80;99.90;;;;;;5034975;28;20087;-76
2022/01/21 10:14:23;;;;;;;113.83;55.73;;;3.90;99.90;;;;;;5034654;28;20021;-76
2022/01/21 10:16:50;;;;;;;107.67;53.40;;;3.90;99.90;;;;;;5052850;28;20103;-76
2022/01/21 10:19:31;;;;;;;107.47;54.67;;;4.00;99.90;;;;;;5049507;28;20033;-76
2022/01/21 10:22:04;;;;;;;119.93;56.77;;;4.10;99.90;;;;;;5052480;28;20025;-76
2022/01/21 10:24:31;;;;;;;109.63;55.20;;;4.10;99.90;;;;;;5034403;28;20028;-76
2022/01/21 10:26:58;;;;;;;106.03;50.60;;;4.10;99.90;;;;;;5034461;28;20432;-76
2022/01/21 10:29:25;;;;;;;105.07;51.83;;;4.20;99.90;;;;;;5051840;28;20029;-76
2022/01/21 10:31:52;;;;;;;114.63;52.63;;;4.20;99.90;;;;;;5052181;28;20575;-76
2022/01/21 10:34:25;;;;;;;110.90;53.78;;;4.30;99.90;;;;;;5034429;28;20025;-76
2022/01/21 10:36:57;;;;;;;107.35;52.20;;;4.40;99.90;;;;;;5052308;28;20108;-76
2022/01/21 10:39:30;;;;;;;122.70;56.17;;;4.60;99.90;;;;;;5052224;28;20035;-76
2022/01/21 10:41:57;;;;;;;112.22;54.72;;;4.60;99.90;;;;;;5052393;28;20082;-76
2022/01/21 10:44:30;;;;;;;120.35;57.20;;;4.70;99.90;;;;;;5052007;28;20021;-76
2022/01/21 10:47:11;;;;;;;115.38;56.88;;;4.80;99.90;;;;;;5034223;28;20028;-76
2022/01/21 10:49:39;;;;;;;118.15;57.20;;;4.80;99.90;;;;;;5051687;28;20171;-76
2022/01/21 10:52:09;;;;;;;125.18;58.67;;;4.80;99.90;;;;;;5052168;28;20025;-76
2022/01/21 10:54:41;;;;;;;110.53;54.65;;;4.90;99.90;;;;;;5052141;28;20021;-76
2022/01/21 10:57:14;;;;;;;124.88;58.20;;;4.90;99.90;;;;;;5034228;28;20020;-76
2022/01/21 11:00:12;;;;;;;122.43;57.63;;;4.90;99.90;;;;;;5051788;28;20109;-76
2022/01/21 11:02:48;;;;;;;116.43;54.17;;;5.00;99.90;;;;;;5028783;28;20040;-76
2022/01/21 11:05:29;;;;;;;106.93;51.10;;;5.00;99.90;;;;;;5033603;28;20082;-76
2022/01/21 11:08:00;;;;;;;107.65;52.42;;;5.10;99.90;;;;;;5033870;28;20505;-76
2022/01/21 11:10:33;;;;;;;117.35;55.45;;;5.10;99.90;;;;;;5033782;28;20510;-76
2022/01/21 11:12:59;;;;;;;106.05;51.03;;;5.10;99.90;;;;;;5033813;28;20090;-76
2022/01/21 11:15:37;;;;;;;110.55;50.38;;;5.20;99.90;;;;;;5033622;28;20043;-76
2022/01/21 11:18:03;;;;;;;105.32;48.83;;;5.30;99.90;;;;;;5033584;28;20025;-76
2022/01/21 11:20:36;;;;;;;108.10;52.30;;;5.30;99.90;;;;;;5046604;28;20073;-76
2022/01/21 11:23:02;;;;;;;107.22;49.22;;;5.40;99.90;;;;;;5071474;28;20024;-76
2022/01/21 11:25:51;;;;;;;106.35;48.53;;;5.50;99.90;;;;;;5071464;28;20025;-76
2022/01/21 11:28:26;;;;;;;108.40;49.00;;;5.60;99.90;;;;;;5071473;28;20024;-76
2022/01/21 11:30:53;;;;;;;101.43;46.63;;;5.60;99.90;;;;;;5071338;28;20036;-76
2022/01/21 11:33:20;;;;;;;97.22;48.28;;;5.70;99.90;;;;;;5071390;28;20021;-75
2022/01/21 11:35:50;;;;;;;106.43;49.17;;;5.70;99.90;;;;;;5053288;28;20048;-76
2022/01/21 11:38:17;;;;;;;93.70;44.40;;;5.70;99.90;;;;;;5039725;28;20556;-76
2022/01/21 11:40:43;;;;;;;98.90;45.42;;;5.70;99.90;;;;;;5034338;28;20047;-76
2022/01/21 11:43:13;;;;;;;99.65;47.35;;;5.70;99.90;;;;;;5055531;28;20041;-74
2022/01/21 11:50:48;;;;;;;105.32;46.95;;;5.70;99.90;;;;;;5057293;28;20044;-76
2022/01/21 11:53:14;;;;;;;96.18;45.95;;;5.70;99.90;;;;;;5037261;28;20494;-76
2022/01/21 11:55:47;;;;;;;91.15;42.65;;;5.70;99.90;;;;;;5055095;28;20051;-76
2022/01/21 11:58:22;;;;;;;90.50;42.65;;;5.70;99.90;;;;;;5054967;28;20033;-76
2022/01/21 12:00:51;;;;;;;92.18;42.67;;;5.80;99.90;;;;;;5055097;28;20029;-76
2022/01/21 12:03:25;;;;;;;96.18;43.92;;;5.80;99.90;;;;;;5054980;28;20482;-76
2022/01/21 12:05:51;;;;;;;88.70;42.45;;;5.90;99.90;;;;;;5055077;28;20031;-76
2022/01/21 12:08:47;;;;;;;93.20;43.72;;;5.90;99.90;;;;;;5046160;28;20109;-75
2022/01/21 12:11:31;;;;;;;97.70;44.53;;;6.00;99.90;;;;;;5004868;28;20037;-76
2022/01/21 12:13:58;;;;;;;97.25;44.13;;;6.00;99.90;;;;;;5017207;28;20029;-76
2022/01/21 12:16:54;;;;;;;97.53;44.65;;;6.00;99.90;;;;;;5034974;28;20520;-76
2022/01/21 12:19:34;;;;;;;91.82;44.45;;;6.10;99.90;;;;;;5034623;28;20068;-76
2022/01/21 12:22:11;;;;;;;105.55;44.85;;;6.20;99.90;;;;;;5029183;28;20037;-76
2022/01/21 12:25:03;;;;;;;101.97;46.80;;;6.30;99.90;;;;;;5034729;28;20037;-76
2022/01/21 12:27:28;;;;;;;97.75;47.53;;;6.30;99.90;;;;;;5033131;28;20033;-76
2022/01/21 12:30:20;;;;;;;90.70;44.25;;;6.30;99.90;;;;;;5034386;28;20379;-76
2022/01/21 12:33:05;;;;;;;93.83;45.90;;;6.30;99.90;;;;;;5027006;28;20022;-76
2022/01/21 12:35:32;;;;;;;89.25;41.72;;;6.30;99.90;;;;;;5034545;28;20024;-76
2022/01/21 12:41:15;;;;;;;98.78;46.35;;;6.40;99.90;;;;;;5018323;28;20390;-76
2022/01/21 12:43:43;;;;;;;95.78;43.25;;;6.40;99.90;;;;;;5034473;28;20025;-76
2022/01/21 12:46:16;;;;;;;90.05;41.47;;;6.30;99.90;;;;;;5034487;28;20414;-76
2022/01/21 12:48:47;;;;;;;94.32;42.70;;;6.40;99.90;;;;;;5034271;28;20021;-76
2022/01/21 12:51:32;;;;;;;97.63;44.78;;;6.40;99.90;;;;;;5069748;28;20056;-76
2022/01/21 12:56:50;;;;;;;95.80;46.42;;;6.40;99.90;;;;;;5074252;28;20044;-76
2022/01/21 12:59:18;;;;;;;100.18;45.80;;;6.30;99.90;;;;;;5074030;28;20029;-76
2022/01/21 13:01:45;;;;;;;106.93;47.35;;;6.30;99.90;;;;;;5074033;28;20024;-76
2022/01/21 13:04:48;;;;;;;98.30;45.53;;;6.30;99.90;;;;;;5073879;28;20366;-76
2022/01/21 13:07:54;;;;;;;102.63;48.53;;;6.30;99.90;;;;;;5073761;28;20025;-76
2022/01/21 13:10:27;;;;;;;100.72;47.33;;;6.20;99.90;;;;;;4992259;28;20176;-76
2022/01/21 13:15:38;;;;;;;100.47;47.47;;;6.20;99.90;;;;;;5073986;28;20028;-76
2022/01/21 13:18:06;;;;;;;100.88;46.97;;;6.20;99.90;;;;;;5055686;28;20025;-76
2022/01/21 13:20:34;;;;;;;107.25;48.63;;;6.20;99.90;;;;;;5073416;28;20024;-76
2022/01/21 13:23:01;;;;;;;96.30;44.70;;;6.20;99.90;;;;;;5073496;28;20098;-76
2022/01/21 13:25:28;;;;;;;102.28;46.53;;;6.20;99.90;;;;;;5073664;28;20029;-76
2022/01/21 13:27:59;;;;;;;102.47;46.22;;;6.20;99.90;;;;;;5073492;28;20120;-76
2022/01/21 13:30:30;;;;;;;95.82;45.47;;;6.20;99.90;;;;;;5055548;28;20024;-76
2022/01/21 13:33:13;;;;;;;98.45;44.08;;;6.20;99.90;;;;;;5055322;28;20031;-76
2022/01/21 13:35:43;;;;;;;100.50;47.45;;;6.20;99.90;;;;;;5073306;28;20028;-76
2022/01/21 13:38:12;;;;;;;103.30;45.75;;;6.20;99.90;;;;;;5051185;28;20025;-76
2022/01/21 13:40:53;;;;;;;101.78;44.35;;;6.20;99.90;;;;;;5073095;28;20027;-76
2022/01/21 13:43:21;;;;;;;101.17;46.40;;;6.20;99.90;;;;;;5055351;28;20024;-76
2022/01/21 13:46:10;;;;;;;103.43;45.40;;;6.20;99.90;;;;;;5073073;28;20031;-76
2022/01/21 13:48:37;;;;;;;98.47;43.28;;;6.10;99.90;;;;;;5055406;28;20432;-77